Terminal Aerodrome Forecast
Issued by NWS

Home | Current Version | Previous Version | Text Only | Print | Product List | Glossary On
Versions: 1 2 3 4 5 6 7 8 9 10 11 12 13 14 15 16 17 18 19
000
FTUS43 KICT 142335
TAFCNU
TAF
KCNU 142335Z 1500/1524 16011KT 6SM BR OVC010
     FM150400 17011KT 5SM BR OVC008
     FM150600 18010KT 5SM -DZ BR OVC008
      TEMPO 1508/1509 4SM TS BR OVC003CB
     FM150900 18009KT 5SM -SHRA BR VCTS OVC010CB
     FM151100 25008KT 5SM -SHRA BR VCTS BKN008CB
     FM151400 34009KT P6SM BKN050=

USA.gov is the U.S. government's official web portal to all federal, state and local government web resources and services.